sensor_id;sensor_type;location;lat;lon;timestamp;pressure;altitude;pressure_sealevel;temperature;humidity
61086;BME280;46967;48.876;2.136;2023-01-20T00:01:22;101146.69;;;2.01;96.05
61086;BME280;46967;48.876;2.136;2023-01-20T00:03:48;101146.75;;;2.07;96.03
61086;BME280;46967;48.876;2.136;2023-01-20T00:06:15;101153.56;;;2.08;96.16
61086;BME280;46967;48.876;2.136;2023-01-20T00:08:40;101156.19;;;2.12;96.36
61086;BME280;46967;48.876;2.136;2023-01-20T00:11:08;101157.09;;;2.14;96.32
61086;BME280;46967;48.876;2.136;2023-01-20T00:13:34;101160.59;;;2.23;95.56
61086;BME280;46967;48.876;2.136;2023-01-20T00:16:04;101164.00;;;2.23;94.94
61086;BME280;46967;48.876;2.136;2023-01-20T00:18:30;101166.47;;;2.17;94.90
61086;BME280;46967;48.876;2.136;2023-01-20T00:20:55;101179.16;;;2.03;95.28
61086;BME280;46967;48.876;2.136;2023-01-20T00:23:21;101178.34;;;2.09;94.78
61086;BME280;46967;48.876;2.136;2023-01-20T00:25:46;101181.75;;;2.05;95.19
61086;BME280;46967;48.876;2.136;2023-01-20T00:28:11;101184.41;;;2.15;94.56
61086;BME280;46967;48.876;2.136;2023-01-20T00:30:37;101177.59;;;2.16;94.28
61086;BME280;46967;48.876;2.136;2023-01-20T00:33:02;101190.28;;;2.05;94.57
61086;BME280;46967;48.876;2.136;2023-01-20T00:35:27;101191.91;;;1.98;94.66
61086;BME280;46967;48.876;2.136;2023-01-20T00:37:53;101191.88;;;1.95;94.76
61086;BME280;46967;48.876;2.136;2023-01-20T00:40:18;101195.16;;;1.87;94.97
61086;BME280;46967;48.876;2.136;2023-01-20T00:42:43;101198.59;;;1.90;94.59
61086;BME280;46967;48.876;2.136;2023-01-20T00:45:09;101203.63;;;1.81;95.41
61086;BME280;46967;48.876;2.136;2023-01-20T00:47:35;101194.38;;;1.91;94.23
61086;BME280;46967;48.876;2.136;2023-01-20T00:50:00;101196.09;;;1.93;94.04
61086;BME280;46967;48.876;2.136;2023-01-20T00:52:26;101200.31;;;1.88;94.61
61086;BME280;46967;48.876;2.136;2023-01-20T00:54:51;101197.81;;;1.94;94.27
61086;BME280;46967;48.876;2.136;2023-01-20T00:57:16;101196.94;;;1.91;94.67
61086;BME280;46967;48.876;2.136;2023-01-20T00:59:41;101195.25;;;1.93;95.08
61086;BME280;46967;48.876;2.136;2023-01-20T01:02:07;101202.13;;;1.97;95.02
61086;BME280;46967;48.876;2.136;2023-01-20T01:04:32;101205.56;;;1.99;95.43
61086;BME280;46967;48.876;2.136;2023-01-20T01:06:57;101211.41;;;1.90;95.12
61086;BME280;46967;48.876;2.136;2023-01-20T01:09:23;101219.88;;;1.83;95.45
61086;BME280;46967;48.876;2.136;2023-01-20T01:11:48;101221.44;;;1.73;95.24
61086;BME280;46967;48.876;2.136;2023-01-20T01:14:14;101223.97;;;1.70;95.67
61086;BME280;46967;48.876;2.136;2023-01-20T01:16:40;101229.75;;;1.58;96.17
61086;BME280;46967;48.876;2.136;2023-01-20T01:19:06;101239.97;;;1.57;96.11
61086;BME280;46967;48.876;2.136;2023-01-20T01:21:31;101244.28;;;1.59;96.02
61086;BME280;46967;48.876;2.136;2023-01-20T01:23:56;101243.38;;;1.54;96.35
61086;BME280;46967;48.876;2.136;2023-01-20T01:26:22;101253.31;;;1.36;97.72
61086;BME280;46967;48.876;2.136;2023-01-20T01:28:48;101253.66;;;1.59;96.45
61086;BME280;46967;48.876;2.136;2023-01-20T01:31:14;101255.28;;;1.54;96.63
61086;BME280;46967;48.876;2.136;2023-01-20T01:33:40;101260.22;;;1.40;97.21
61086;BME280;46967;48.876;2.136;2023-01-20T01:36:06;101265.28;;;1.37;97.17
61086;BME280;46967;48.876;2.136;2023-01-20T01:38:36;101261.16;;;1.47;96.54
61086;BME280;46967;48.876;2.136;2023-01-20T01:41:01;101259.44;;;1.47;96.84
61086;BME280;46967;48.876;2.136;2023-01-20T01:43:32;101250.09;;;1.48;95.89
61086;BME280;46967;48.876;2.136;2023-01-20T01:45:58;101265.34;;;1.41;96.68
61086;BME280;46967;48.876;2.136;2023-01-20T01:48:39;101264.53;;;1.44;96.30
61086;BME280;46967;48.876;2.136;2023-01-20T01:51:36;101261.16;;;1.47;96.46
61086;BME280;46967;48.876;2.136;2023-01-20T01:54:14;101266.44;;;1.57;96.10
61086;BME280;46967;48.876;2.136;2023-01-20T01:56:42;101276.59;;;1.51;96.24
61086;BME280;46967;48.876;2.136;2023-01-20T01:59:11;101287.03;;;1.65;95.40
61086;BME280;46967;48.876;2.136;2023-01-20T02:01:38;101285.28;;;1.62;95.05
61086;BME280;46967;48.876;2.136;2023-01-20T02:04:09;101295.59;;;1.67;95.24
61086;BME280;46967;48.876;2.136;2023-01-20T02:06:39;101296.47;;;1.71;95.28
61086;BME280;46967;48.876;2.136;2023-01-20T02:09:05;101299.88;;;1.68;95.13
61086;BME280;46967;48.876;2.136;2023-01-20T02:11:35;101291.34;;;1.71;95.45
61086;BME280;46967;48.876;2.136;2023-01-20T02:14:01;101298.22;;;1.72;95.55
61086;BME280;46967;48.876;2.136;2023-01-20T02:26:58;101324.94;;;1.36;95.83
61086;BME280;46967;48.876;2.136;2023-01-20T02:34:58;101327.22;;;1.20;97.01
61086;BME280;46967;48.876;2.136;2023-01-20T02:37:28;101326.25;;;1.12;96.66
61086;BME280;46967;48.876;2.136;2023-01-20T02:42:23;101327.16;;;1.16;97.31
61086;BME280;46967;48.876;2.136;2023-01-20T02:52:36;101334.97;;;1.23;96.42
61086;BME280;46967;48.876;2.136;2023-01-20T02:55:08;101336.56;;;1.17;96.72
61086;BME280;46967;48.876;2.136;2023-01-20T02:57:46;101339.19;;;1.21;96.65
61086;BME280;46967;48.876;2.136;2023-01-20T03:00:18;101346.00;;;1.19;96.50
61086;BME280;46967;48.876;2.136;2023-01-20T03:02:47;101348.50;;;1.16;95.97
61086;BME280;46967;48.876;2.136;2023-01-20T03:05:21;101348.44;;;1.13;95.68
61086;BME280;46967;48.876;2.136;2023-01-20T03:07:48;101345.56;;;0.96;96.57
61086;BME280;46967;48.876;2.136;2023-01-20T03:10:17;101347.06;;;0.85;97.46
61086;BME280;46967;48.876;2.136;2023-01-20T03:12:59;101356.50;;;0.87;96.71
61086;BME280;46967;48.876;2.136;2023-01-20T03:16:02;101355.72;;;0.93;96.39
61086;BME280;46967;48.876;2.136;2023-01-20T03:18:30;101361.53;;;0.84;96.58
61086;BME280;46967;48.876;2.136;2023-01-20T03:20:57;101371.78;;;0.84;96.21
61086;BME280;46967;48.876;2.136;2023-01-20T03:23:25;101373.44;;;0.84;96.41
61086;BME280;46967;48.876;2.136;2023-01-20T03:25:52;101380.19;;;0.80;96.62
61086;BME280;46967;48.876;2.136;2023-01-20T03:28:18;101379.63;;;0.94;96.53
61086;BME280;46967;48.876;2.136;2023-01-20T03:30:43;101384.03;;;1.02;96.29
61086;BME280;46967;48.876;2.136;2023-01-20T03:33:09;101387.50;;;1.06;96.31
61086;BME280;46967;48.876;2.136;2023-01-20T03:35:35;101391.03;;;1.14;95.63
61086;BME280;46967;48.876;2.136;2023-01-20T03:38:02;101376.53;;;1.12;95.87
61086;BME280;46967;48.876;2.136;2023-01-20T03:40:30;101380.94;;;1.20;95.68
61086;BME280;46967;48.876;2.136;2023-01-20T03:43:13;101381.88;;;1.24;94.33
61086;BME280;46967;48.876;2.136;2023-01-20T03:51:31;101386.03;;;1.19;94.76
61086;BME280;46967;48.876;2.136;2023-01-20T03:54:02;101385.25;;;1.23;94.47
61086;BME280;46967;48.876;2.136;2023-01-20T03:56:44;101396.41;;;1.28;93.70
61086;BME280;46967;48.876;2.136;2023-01-20T03:59:14;101394.78;;;1.30;93.34
61086;BME280;46967;48.876;2.136;2023-01-20T04:01:43;101399.88;;;1.30;93.58
61086;BME280;46967;48.876;2.136;2023-01-20T04:04:13;101402.38;;;1.27;93.41
61086;BME280;46967;48.876;2.136;2023-01-20T04:06:41;101415.19;;;1.27;94.17
61086;BME280;46967;48.876;2.136;2023-01-20T04:09:10;101415.19;;;1.29;93.79
61086;BME280;46967;48.876;2.136;2023-01-20T04:11:37;101421.16;;;1.29;93.24
61086;BME280;46967;48.876;2.136;2023-01-20T04:14:03;101426.25;;;1.27;93.27
61086;BME280;46967;48.876;2.136;2023-01-20T04:16:28;101426.97;;;1.20;93.35
61086;BME280;46967;48.876;2.136;2023-01-20T04:18:53;101423.50;;;1.17;93.72
61086;BME280;46967;48.876;2.136;2023-01-20T04:21:33;101420.91;;;1.15;93.34
61086;BME280;46967;48.876;2.136;2023-01-20T04:26:30;101433.28;;;0.95;94.14
61086;BME280;46967;48.876;2.136;2023-01-20T04:28:56;101426.56;;;0.99;94.21
61086;BME280;46967;48.876;2.136;2023-01-20T04:31:21;101431.50;;;0.89;94.36
61086;BME280;46967;48.876;2.136;2023-01-20T04:33:46;101435.88;;;0.97;93.81
61086;BME280;46967;48.876;2.136;2023-01-20T04:36:12;101432.41;;;0.93;93.79
61086;BME280;46967;48.876;2.136;2023-01-20T04:38:37;101429.06;;;0.96;93.75
61086;BME280;46967;48.876;2.136;2023-01-20T04:41:02;101437.66;;;0.99;93.57
61086;BME280;46967;48.876;2.136;2023-01-20T04:43:28;101443.69;;;1.03;93.69
61086;BME280;46967;48.876;2.136;2023-01-20T04:45:53;101456.47;;;1.03;93.32
61086;BME280;46967;48.876;2.136;2023-01-20T04:48:18;101452.16;;;1.00;93.58
61086;BME280;46967;48.876;2.136;2023-01-20T04:50:44;101448.78;;;1.03;93.34
61086;BME280;46967;48.876;2.136;2023-01-20T04:53:11;101453.03;;;1.01;92.54
61086;BME280;46967;48.876;2.136;2023-01-20T04:55:37;101455.34;;;0.90;93.09
61086;BME280;46967;48.876;2.136;2023-01-20T04:58:03;101450.41;;;0.98;92.20
61086;BME280;46967;48.876;2.136;2023-01-20T05:00:28;101457.00;;;0.86;92.45
61086;BME280;46967;48.876;2.136;2023-01-20T05:02:57;101468.09;;;0.88;92.83
61086;BME280;46967;48.876;2.136;2023-01-20T05:05:23;101462.88;;;0.84;92.69
61086;BME280;46967;48.876;2.136;2023-01-20T05:07:51;101469.72;;;0.83;92.54
61086;BME280;46967;48.876;2.136;2023-01-20T05:10:17;101469.81;;;0.88;92.35
61086;BME280;46967;48.876;2.136;2023-01-20T05:12:42;101467.22;;;0.86;92.02
61086;BME280;46967;48.876;2.136;2023-01-20T05:15:08;101467.97;;;0.82;92.37
61086;BME280;46967;48.876;2.136;2023-01-20T05:17:33;101468.81;;;0.81;92.43
61086;BME280;46967;48.876;2.136;2023-01-20T05:19:59;101479.06;;;0.83;92.50
61086;BME280;46967;48.876;2.136;2023-01-20T05:22:24;101485.84;;;0.82;92.16
61086;BME280;46967;48.876;2.136;2023-01-20T05:24:49;101478.97;;;0.78;91.93
61086;BME280;46967;48.876;2.136;2023-01-20T05:27:15;101483.25;;;0.79;92.09
61086;BME280;46967;48.876;2.136;2023-01-20T05:29:40;101473.88;;;0.78;91.14
61086;BME280;46967;48.876;2.136;2023-01-20T05:32:05;101478.13;;;0.79;91.26
61086;BME280;46967;48.876;2.136;2023-01-20T05:34:31;101492.56;;;0.77;90.83
61086;BME280;46967;48.876;2.136;2023-01-20T05:36:56;101492.50;;;0.74;91.48
61086;BME280;46967;48.876;2.136;2023-01-20T05:39:21;101494.19;;;0.72;91.83
61086;BME280;46967;48.876;2.136;2023-01-20T05:41:48;101494.19;;;0.72;92.02
61086;BME280;46967;48.876;2.136;2023-01-20T05:44:14;101498.41;;;0.70;92.12
61086;BME280;46967;48.876;2.136;2023-01-20T05:46:40;101502.59;;;0.68;91.95
61086;BME280;46967;48.876;2.136;2023-01-20T05:49:05;101511.88;;;0.64;91.89
61086;BME280;46967;48.876;2.136;2023-01-20T05:51:30;101510.19;;;0.65;91.63
61086;BME280;46967;48.876;2.136;2023-01-20T05:53:56;101508.41;;;0.61;91.23
61086;BME280;46967;48.876;2.136;2023-01-20T05:56:21;101516.03;;;0.59;90.75
61086;BME280;46967;48.876;2.136;2023-01-20T05:58:47;101521.94;;;0.57;91.15
61086;BME280;46967;48.876;2.136;2023-01-20T06:01:13;101520.19;;;0.54;91.22
61086;BME280;46967;48.876;2.136;2023-01-20T06:03:38;101515.81;;;0.50;91.40
61086;BME280;46967;48.876;2.136;2023-01-20T06:06:06;101520.03;;;0.48;91.26
61086;BME280;46967;48.876;2.136;2023-01-20T06:08:33;101519.16;;;0.47;91.06
61086;BME280;46967;48.876;2.136;2023-01-20T06:10:58;101521.72;;;0.47;90.94
61086;BME280;46967;48.876;2.136;2023-01-20T06:13:24;101521.72;;;0.47;90.79
61086;BME280;46967;48.876;2.136;2023-01-20T06:15:53;101513.16;;;0.45;90.94
61086;BME280;46967;48.876;2.136;2023-01-20T06:18:22;101513.09;;;0.42;90.91
61086;BME280;46967;48.876;2.136;2023-01-20T06:20:47;101510.47;;;0.39;91.53
61086;BME280;46967;48.876;2.136;2023-01-20T06:23:13;101513.84;;;0.38;91.75
61086;BME280;46967;48.876;2.136;2023-01-20T06:25:38;101517.22;;;0.37;92.08
61086;BME280;46967;48.876;2.136;2023-01-20T06:28:04;101508.72;;;0.38;92.44
61086;BME280;46967;48.876;2.136;2023-01-20T06:30:29;101513.06;;;0.41;92.25
61086;BME280;46967;48.876;2.136;2023-01-20T06:32:54;101513.13;;;0.44;92.43
61086;BME280;46967;48.876;2.136;2023-01-20T06:35:22;101510.59;;;0.45;92.57
61086;BME280;46967;48.876;2.136;2023-01-20T06:37:47;101502.94;;;0.45;93.21
61086;BME280;46967;48.876;2.136;2023-01-20T06:40:14;101508.94;;;0.47;93.56
61086;BME280;46967;48.876;2.136;2023-01-20T06:42:40;101508.84;;;0.43;93.63
61086;BME280;46967;48.876;2.136;2023-01-20T06:45:06;101521.63;;;0.44;93.59
61086;BME280;46967;48.876;2.136;2023-01-20T06:47:31;101519.31;;;0.53;93.22
61086;BME280;46967;48.876;2.136;2023-01-20T06:50:12;101526.28;;;0.61;92.95
61086;BME280;46967;48.876;2.136;2023-01-20T06:52:37;101534.06;;;0.65;93.31
61086;BME280;46967;48.876;2.136;2023-01-20T06:55:03;101529.06;;;0.70;93.15
61086;BME280;46967;48.876;2.136;2023-01-20T06:57:28;101527.53;;;0.78;92.32
61086;BME280;46967;48.876;2.136;2023-01-20T06:59:53;101534.28;;;0.76;91.57
61086;BME280;46967;48.876;2.136;2023-01-20T07:02:19;101539.38;;;0.76;91.44
61086;BME280;46967;48.876;2.136;2023-01-20T07:04:44;101538.66;;;0.80;91.29
61086;BME280;46967;48.876;2.136;2023-01-20T07:07:11;101547.22;;;0.84;91.09
61086;BME280;46967;48.876;2.136;2023-01-20T07:09:36;101549.81;;;0.85;91.19
61086;BME280;46967;48.876;2.136;2023-01-20T07:12:02;101542.22;;;0.88;91.28
61086;BME280;46967;48.876;2.136;2023-01-20T07:14:27;101556.00;;;0.95;91.11
61086;BME280;46967;48.876;2.136;2023-01-20T07:16:52;101565.47;;;0.99;90.78
61086;BME280;46967;48.876;2.136;2023-01-20T07:19:18;101570.63;;;1.01;90.47
61086;BME280;46967;48.876;2.136;2023-01-20T07:21:43;101563.84;;;1.03;90.46
61086;BME280;46967;48.876;2.136;2023-01-20T07:24:08;101557.13;;;1.06;90.40
61086;BME280;46967;48.876;2.136;2023-01-20T07:26:34;101570.78;;;1.08;90.52
61086;BME280;46967;48.876;2.136;2023-01-20T07:29:00;101572.59;;;1.14;90.26
61086;BME280;46967;48.876;2.136;2023-01-20T07:31:27;101574.44;;;1.20;90.68
61086;BME280;46967;48.876;2.136;2023-01-20T07:33:53;101574.47;;;1.21;91.02
61086;BME280;46967;48.876;2.136;2023-01-20T07:36:20;101584.72;;;1.23;90.99
61086;BME280;46967;48.876;2.136;2023-01-20T07:38:49;101588.94;;;1.19;91.13
61086;BME280;46967;48.876;2.136;2023-01-20T07:41:15;101588.03;;;1.19;90.26
61086;BME280;46967;48.876;2.136;2023-01-20T07:43:43;101591.44;;;1.18;90.24
61086;BME280;46967;48.876;2.136;2023-01-20T07:46:08;101591.41;;;1.16;90.05
61086;BME280;46967;48.876;2.136;2023-01-20T07:48:34;101591.47;;;1.19;90.08
61086;BME280;46967;48.876;2.136;2023-01-20T07:51:04;101600.94;;;1.23;89.88
61086;BME280;46967;48.876;2.136;2023-01-20T07:53:41;101599.28;;;1.25;90.07
61086;BME280;46967;48.876;2.136;2023-01-20T07:56:11;101599.34;;;1.29;90.28
61086;BME280;46967;48.876;2.136;2023-01-20T07:58:37;101611.28;;;1.30;90.52
61086;BME280;46967;48.876;2.136;2023-01-20T08:01:11;101607.84;;;1.27;90.61
61086;BME280;46967;48.876;2.136;2023-01-20T08:03:38;101608.84;;;1.34;90.78
61086;BME280;46967;48.876;2.136;2023-01-20T08:06:05;101608.03;;;1.37;90.60
61086;BME280;46967;48.876;2.136;2023-01-20T08:08:31;101620.88;;;1.38;90.71
61086;BME280;46967;48.876;2.136;2023-01-20T08:10:57;101619.19;;;1.40;90.72
61086;BME280;46967;48.876;2.136;2023-01-20T08:13:23;101612.38;;;1.41;90.51
61086;BME280;46967;48.876;2.136;2023-01-20T08:15:48;101610.47;;;1.31;89.00
61086;BME280;46967;48.876;2.136;2023-01-20T08:18:13;101610.66;;;1.40;87.99
61086;BME280;46967;48.876;2.136;2023-01-20T08:20:40;101620.59;;;1.26;87.52
61086;BME280;46967;48.876;2.136;2023-01-20T08:23:05;101620.53;;;1.23;87.63
61086;BME280;46967;48.876;2.136;2023-01-20T08:25:31;101624.00;;;1.26;87.43
61086;BME280;46967;48.876;2.136;2023-01-20T08:27:56;101640.28;;;1.29;87.57
61086;BME280;46967;48.876;2.136;2023-01-20T08:30:21;101646.06;;;1.21;87.95
61086;BME280;46967;48.876;2.136;2023-01-20T08:32:47;101657.66;;;1.05;88.99
61086;BME280;46967;48.876;2.136;2023-01-20T08:35:12;101653.25;;;1.00;88.82
61086;BME280;46967;48.876;2.136;2023-01-20T08:37:37;101655.19;;;1.10;88.86
61086;BME280;46967;48.876;2.136;2023-01-20T08:40:07;101666.31;;;1.12;88.95
61086;BME280;46967;48.876;2.136;2023-01-20T08:42:33;101668.03;;;1.12;88.88
61086;BME280;46967;48.876;2.136;2023-01-20T08:44:59;101653.53;;;1.12;88.92
61086;BME280;46967;48.876;2.136;2023-01-20T08:47:24;101644.16;;;1.11;89.48
61086;BME280;46967;48.876;2.136;2023-01-20T08:49:51;101643.22;;;1.09;89.92
61086;BME280;46967;48.876;2.136;2023-01-20T08:52:17;101648.44;;;1.14;90.48
61086;BME280;46967;48.876;2.136;2023-01-20T08:54:42;101655.41;;;1.19;90.30
61086;BME280;46967;48.876;2.136;2023-01-20T08:57:07;101658.19;;;1.29;89.56
61086;BME280;46967;48.876;2.136;2023-01-20T08:59:33;101654.97;;;1.39;89.00
61086;BME280;46967;48.876;2.136;2023-01-20T09:01:58;101658.91;;;1.23;89.77
61086;BME280;46967;48.876;2.136;2023-01-20T09:04:23;101659.34;;;1.43;89.43
61086;BME280;46967;48.876;2.136;2023-01-20T09:06:49;101663.44;;;1.36;89.44
61086;BME280;46967;48.876;2.136;2023-01-20T09:09:16;101670.94;;;1.27;90.24
61086;BME280;46967;48.876;2.136;2023-01-20T09:11:42;101672.84;;;1.37;90.77
61086;BME280;46967;48.876;2.136;2023-01-20T09:14:16;101666.97;;;1.41;91.65
61086;BME280;46967;48.876;2.136;2023-01-20T09:16:41;101679.94;;;1.51;92.21
61086;BME280;46967;48.876;2.136;2023-01-20T09:19:07;101682.81;;;1.65;91.76
61086;BME280;46967;48.876;2.136;2023-01-20T09:21:32;101681.50;;;1.84;91.31
61086;BME280;46967;48.876;2.136;2023-01-20T09:23:57;101678.97;;;1.85;91.11
61086;BME280;46967;48.876;2.136;2023-01-20T09:26:23;101660.59;;;2.05;90.19
61086;BME280;46967;48.876;2.136;2023-01-20T09:28:48;101655.97;;;2.32;90.66
61086;BME280;46967;48.876;2.136;2023-01-20T09:31:13;101653.53;;;2.40;91.13
61086;BME280;46967;48.876;2.136;2023-01-20T09:33:39;101655.31;;;2.46;91.81
61086;BME280;46967;48.876;2.136;2023-01-20T09:36:07;101656.13;;;2.42;92.65
61086;BME280;46967;48.876;2.136;2023-01-20T09:38:33;101668.06;;;2.40;93.57
61086;BME280;46967;48.876;2.136;2023-01-20T09:41:27;101665.53;;;2.43;93.18
61086;BME280;46967;48.876;2.136;2023-01-20T09:52:32;101674.94;;;2.44;88.80
61086;BME280;46967;48.876;2.136;2023-01-20T09:55:41;101679.16;;;2.40;89.22
61086;BME280;46967;48.876;2.136;2023-01-20T10:01:32;101696.28;;;2.41;89.86
61086;BME280;46967;48.876;2.136;2023-01-20T10:04:03;101705.47;;;2.31;90.73
61086;BME280;46967;48.876;2.136;2023-01-20T10:11:40;101704.84;;;2.43;89.74
61086;BME280;46967;48.876;2.136;2023-01-20T10:19:16;101705.91;;;2.56;86.13
61086;BME280;46967;48.876;2.136;2023-01-20T10:21:51;101697.47;;;2.60;85.06
61086;BME280;46967;48.876;2.136;2023-01-20T10:24:29;101703.72;;;2.76;84.23
61086;BME280;46967;48.876;2.136;2023-01-20T10:27:01;101708.88;;;2.78;83.31
61086;BME280;46967;48.876;2.136;2023-01-20T10:29:33;101715.81;;;2.86;83.95
61086;BME280;46967;48.876;2.136;2023-01-20T10:32:02;101702.94;;;2.82;83.17
61086;BME280;46967;48.876;2.136;2023-01-20T10:34:40;101707.84;;;2.69;84.12
61086;BME280;46967;48.876;2.136;2023-01-20T10:37:09;101713.00;;;2.71;84.34
61086;BME280;46967;48.876;2.136;2023-01-20T10:39:52;101709.00;;;2.87;84.13
61086;BME280;46967;48.876;2.136;2023-01-20T10:42:19;101706.41;;;2.87;82.89
61086;BME280;46967;48.876;2.136;2023-01-20T10:44:46;101704.00;;;2.96;82.54
61086;BME280;46967;48.876;2.136;2023-01-20T10:58:26;101713.75;;;3.16;82.27
61086;BME280;46967;48.876;2.136;2023-01-20T11:00:53;101724.88;;;3.18;81.66
61086;BME280;46967;48.876;2.136;2023-01-20T11:03:21;101721.56;;;3.25;81.92
61086;BME280;46967;48.876;2.136;2023-01-20T11:05:48;101720.72;;;3.26;82.31
61086;BME280;46967;48.876;2.136;2023-01-20T11:08:41;101723.25;;;3.23;81.57
61086;BME280;46967;48.876;2.136;2023-01-20T11:11:12;101717.16;;;3.16;81.42
61086;BME280;46967;48.876;2.136;2023-01-20T11:13:38;101722.47;;;3.27;80.70
61086;BME280;46967;48.876;2.136;2023-01-20T11:16:18;101716.16;;;3.06;81.14
61086;BME280;46967;48.876;2.136;2023-01-20T11:19:01;101709.09;;;2.93;81.88
61086;BME280;46967;48.876;2.136;2023-01-20T11:21:30;101716.72;;;2.90;81.32
61086;BME280;46967;48.876;2.136;2023-01-20T11:23:57;101717.88;;;3.07;81.60
61086;BME280;46967;48.876;2.136;2023-01-20T11:26:31;101714.88;;;3.35;80.45
61086;BME280;46967;48.876;2.136;2023-01-20T11:31:40;101710.25;;;3.72;79.04
61086;BME280;46967;48.876;2.136;2023-01-20T11:34:28;101714.81;;;3.96;78.16
61086;BME280;46967;48.876;2.136;2023-01-20T11:39:42;101709.41;;;3.73;78.46
61086;BME280;46967;48.876;2.136;2023-01-20T11:42:21;101711.06;;;3.71;79.15
61086;BME280;46967;48.876;2.136;2023-01-20T11:44:55;101703.25;;;3.63;79.35
61086;BME280;46967;48.876;2.136;2023-01-20T11:47:34;101709.19;;;3.57;78.96
61086;BME280;46967;48.876;2.136;2023-01-20T11:52:43;101701.31;;;3.43;80.03
61086;BME280;46967;48.876;2.136;2023-01-20T11:57:47;101694.59;;;3.55;79.67
61086;BME280;46967;48.876;2.136;2023-01-20T12:02:42;101689.44;;;3.52;80.44
61086;BME280;46967;48.876;2.136;2023-01-20T12:05:21;101686.22;;;3.67;80.10
61086;BME280;46967;48.876;2.136;2023-01-20T12:07:51;101693.00;;;3.63;80.12
61086;BME280;46967;48.876;2.136;2023-01-20T12:12:50;101690.44;;;3.65;80.03
61086;BME280;46967;48.876;2.136;2023-01-20T12:15:25;101681.88;;;3.62;80.70
61086;BME280;46967;48.876;2.136;2023-01-20T12:17:58;101684.50;;;3.67;80.67
61086;BME280;46967;48.876;2.136;2023-01-20T12:26:14;101680.16;;;4.37;79.39
61086;BME280;46967;48.876;2.136;2023-01-20T12:31:24;101689.84;;;4.65;78.92
61086;BME280;46967;48.876;2.136;2023-01-20T12:33:59;101685.66;;;4.78;78.31
61086;BME280;46967;48.876;2.136;2023-01-20T12:36:51;101685.63;;;4.74;78.06
61086;BME280;46967;48.876;2.136;2023-01-20T12:42:37;101686.69;;;5.00;78.19
61086;BME280;46967;48.876;2.136;2023-01-20T13:10:45;101683.50;;;5.38;75.71
61086;BME280;46967;48.876;2.136;2023-01-20T13:19:12;101675.03;;;5.59;74.77
61086;BME280;46967;48.876;2.136;2023-01-20T13:21:38;101678.56;;;5.81;74.80
61086;BME280;46967;48.876;2.136;2023-01-20T13:24:13;101675.97;;;5.78;74.03
61086;BME280;46967;48.876;2.136;2023-01-20T13:26:44;101669.22;;;6.07;74.18
61086;BME280;46967;48.876;2.136;2023-01-20T13:29:39;101660.63;;;6.03;73.37
61086;BME280;46967;48.876;2.136;2023-01-20T13:34:49;101671.88;;;6.51;72.49
61086;BME280;46967;48.876;2.136;2023-01-20T13:39:46;101668.44;;;6.77;70.69
61086;BME280;46967;48.876;2.136;2023-01-20T13:42:29;101671.03;;;6.77;70.81
61086;BME280;46967;48.876;2.136;2023-01-20T13:47:52;101659.84;;;6.38;71.87
61086;BME280;46967;48.876;2.136;2023-01-20T13:50:39;101658.13;;;6.42;72.37
61086;BME280;46967;48.876;2.136;2023-01-20T14:00:39;101653.81;;;6.99;71.78
61086;BME280;46967;48.876;2.136;2023-01-20T14:05:53;101665.00;;;6.77;71.44
61086;BME280;46967;48.876;2.136;2023-01-20T14:08:21;101658.97;;;6.55;70.93
61086;BME280;46967;48.876;2.136;2023-01-20T14:10:47;101662.41;;;6.40;71.24
61086;BME280;46967;48.876;2.136;2023-01-20T14:13:22;101660.69;;;6.19;71.76
61086;BME280;46967;48.876;2.136;2023-01-20T14:15:53;101669.28;;;6.27;72.60
61086;BME280;46967;48.876;2.136;2023-01-20T14:18:24;101669.25;;;6.19;72.52
61086;BME280;46967;48.876;2.136;2023-01-20T14:20:59;101667.56;;;6.30;71.82
61086;BME280;46967;48.876;2.136;2023-01-20T14:23:33;101674.47;;;6.51;71.69
61086;BME280;46967;48.876;2.136;2023-01-20T14:28:28;101667.59;;;6.57;71.12
61086;BME280;46967;48.876;2.136;2023-01-20T14:34:00;101669.31;;;6.73;70.87
61086;BME280;46967;48.876;2.136;2023-01-20T14:36:29;101679.63;;;6.70;69.94
61086;BME280;46967;48.876;2.136;2023-01-20T14:38:57;101677.06;;;6.61;70.38
61086;BME280;46967;48.876;2.136;2023-01-20T14:41:33;101676.19;;;6.48;70.97
61086;BME280;46967;48.876;2.136;2023-01-20T14:44:00;101677.03;;;6.44;70.80
61086;BME280;46967;48.876;2.136;2023-01-20T14:46:27;101676.13;;;6.26;72.02
61086;BME280;46967;48.876;2.136;2023-01-20T14:48:53;101677.00;;;6.22;72.89
61086;BME280;46967;48.876;2.136;2023-01-20T14:51:20;101676.13;;;6.08;73.40
61086;BME280;46967;48.876;2.136;2023-01-20T14:53:46;101679.53;;;6.08;73.75
61086;BME280;46967;48.876;2.136;2023-01-20T14:56:17;101677.84;;;6.18;73.02
61086;BME280;46967;48.876;2.136;2023-01-20T14:58:45;101683.00;;;6.20;73.46
61086;BME280;46967;48.876;2.136;2023-01-20T15:01:22;101684.69;;;6.10;73.92
61086;BME280;46967;48.876;2.136;2023-01-20T15:03:57;101682.13;;;6.07;74.10
61086;BME280;46967;48.876;2.136;2023-01-20T15:06:23;101682.97;;;6.06;73.95
61086;BME280;46967;48.876;2.136;2023-01-20T15:08:51;101679.44;;;5.91;74.69
61086;BME280;46967;48.876;2.136;2023-01-20T15:11:20;101684.59;;;5.93;74.17
61086;BME280;46967;48.876;2.136;2023-01-20T15:16:28;101695.72;;;5.76;74.95
61086;BME280;46967;48.876;2.136;2023-01-20T15:21:39;101699.16;;;5.78;74.60
61086;BME280;46967;48.876;2.136;2023-01-20T15:26:36;101696.56;;;5.75;75.07
61086;BME280;46967;48.876;2.136;2023-01-20T15:29:21;101696.59;;;5.85;74.03
61086;BME280;46967;48.876;2.136;2023-01-20T15:31:47;101700.03;;;5.85;74.79
61086;BME280;46967;48.876;2.136;2023-01-20T15:34:12;101698.31;;;5.79;74.88
61086;BME280;46967;48.876;2.136;2023-01-20T15:36:38;101702.59;;;5.79;75.26
61086;BME280;46967;48.876;2.136;2023-01-20T15:39:11;101711.16;;;5.72;74.78
61086;BME280;46967;48.876;2.136;2023-01-20T15:41:36;101712.84;;;5.63;75.53
61086;BME280;46967;48.876;2.136;2023-01-20T15:44:02;101722.28;;;5.61;75.91
61086;BME280;46967;48.876;2.136;2023-01-20T15:46:27;101727.34;;;5.51;76.14